createdAt,value
2022-11-23T00:01:23.638Z,6.51
2022-11-23T00:03:53.916Z,6.57
2022-11-23T00:06:20.955Z,6.50
2022-11-23T00:08:47.991Z,6.35
2022-11-23T00:11:14.463Z,6.35
2022-11-23T00:13:41.159Z,6.38
2022-11-23T00:16:09.388Z,6.36
2022-11-23T00:18:35.814Z,6.39
2022-11-23T00:21:11.139Z,6.43
2022-11-23T00:23:37.895Z,6.40
2022-11-23T00:26:04.851Z,6.36
2022-11-23T00:28:31.689Z,6.40
2022-11-23T00:30:58.283Z,6.46
2022-11-23T00:33:24.842Z,6.36
2022-11-23T00:36:03.803Z,6.33
2022-11-23T00:38:30.615Z,6.38
2022-11-23T00:41:02.267Z,6.45
2022-11-23T00:43:29.299Z,6.45
2022-11-23T00:46:12.976Z,6.35
2022-11-23T00:48:46.144Z,6.45
2022-11-23T00:51:16.131Z,6.53
2022-11-23T00:53:43.114Z,6.62
2022-11-23T00:56:10.939Z,6.57
2022-11-23T00:58:40.023Z,6.51
2022-11-23T01:01:08.458Z,6.55
2022-11-23T01:03:39.941Z,6.53
2022-11-23T01:06:12.016Z,6.44
2022-11-23T01:08:39.122Z,6.39
2022-11-23T01:11:11.041Z,6.27
2022-11-23T01:13:39.195Z,6.24
2022-11-23T01:16:28.192Z,6.22
2022-11-23T01:19:04.111Z,6.36
2022-11-23T01:21:31.564Z,6.36
2022-11-23T01:23:59.436Z,6.29
2022-11-23T01:26:26.170Z,6.21
2022-11-23T01:28:52.659Z,6.19
2022-11-23T01:31:23.603Z,6.13
2022-11-23T01:33:58.245Z,5.97
2022-11-23T01:36:28.816Z,6.03
2022-11-23T01:38:55.318Z,5.97
2022-11-23T01:41:27.049Z,5.93
2022-11-23T01:43:53.731Z,5.81
2022-11-23T01:46:20.256Z,5.85
2022-11-23T01:49:06.301Z,5.81
2022-11-23T01:51:44.932Z,5.78
2022-11-23T01:54:15.909Z,5.81
2022-11-23T01:56:46.127Z,5.77
2022-11-23T01:59:16.063Z,5.60
2022-11-23T02:01:43.076Z,5.69
2022-11-23T02:04:12.859Z,5.68
2022-11-23T02:06:42.770Z,5.76
2022-11-23T02:09:09.264Z,5.81
2022-11-23T02:11:35.734Z,5.79
2022-11-23T02:14:02.254Z,5.71
2022-11-23T02:16:29.667Z,5.70
2022-11-23T02:18:56.128Z,5.56
2022-11-23T02:21:22.603Z,5.56
2022-11-23T02:24:01.568Z,5.36
2022-11-23T02:26:30.603Z,5.34
2022-11-23T02:29:12.315Z,5.58
2022-11-23T02:31:38.837Z,5.82
2022-11-23T02:34:05.301Z,5.74
2022-11-23T02:36:41.013Z,5.73
2022-11-23T02:39:31.427Z,5.82
2022-11-23T02:41:58.304Z,6.02
2022-11-23T02:44:45.917Z,6.06
2022-11-23T02:47:13.856Z,6.00
2022-11-23T02:49:41.341Z,5.77
2022-11-23T02:52:08.572Z,5.62
2022-11-23T02:54:35.124Z,5.47
2022-11-23T02:57:01.733Z,5.39
2022-11-23T02:59:31.825Z,5.38
2022-11-23T03:01:59.912Z,5.30
2022-11-23T03:04:28.116Z,5.43
2022-11-23T03:06:55.137Z,5.51
2022-11-23T03:09:22.131Z,5.42
2022-11-23T03:11:48.749Z,5.45
2022-11-23T03:14:15.619Z,5.43
2022-11-23T03:16:47.900Z,5.55
2022-11-23T03:19:16.754Z,5.65
2022-11-23T03:21:43.797Z,5.49
2022-11-23T03:24:10.336Z,5.56
2022-11-23T03:26:37.171Z,5.63
2022-11-23T03:29:09.034Z,5.74
2022-11-23T03:31:37.304Z,5.95
2022-11-23T03:34:04.978Z,6.12
2022-11-23T03:36:32.078Z,6.01
2022-11-23T03:38:59.673Z,5.95
2022-11-23T03:41:58.367Z,6.03
2022-11-23T03:44:30.116Z,6.11
2022-11-23T03:46:56.959Z,6.18
2022-11-23T03:49:24.414Z,6.18
2022-11-23T03:51:52.207Z,6.25
2022-11-23T03:54:18.816Z,6.26
2022-11-23T03:56:45.454Z,6.18
2022-11-23T03:59:12.049Z,6.01
2022-11-23T04:01:38.725Z,5.97
2022-11-23T04:04:08.190Z,6.01
2022-11-23T04:06:54.913Z,5.92
2022-11-23T04:09:25.860Z,5.87
2022-11-23T04:12:10.868Z,5.90
2022-11-23T04:14:38.193Z,5.82
2022-11-23T04:17:04.860Z,5.73
2022-11-23T04:19:32.751Z,5.69
2022-11-23T04:21:59.820Z,5.62
2022-11-23T04:24:28.035Z,5.58
2022-11-23T04:26:56.226Z,5.54
2022-11-23T04:29:23.720Z,5.55
2022-11-23T04:31:52.592Z,5.52
2022-11-23T04:34:19.412Z,5.48
2022-11-23T04:36:46.899Z,5.50
2022-11-23T04:39:13.897Z,5.43
2022-11-23T04:42:00.652Z,5.40
2022-11-23T04:44:27.109Z,5.50
2022-11-23T04:46:58.659Z,5.63
2022-11-23T04:49:25.540Z,5.62
2022-11-23T04:51:52.128Z,5.69
2022-11-23T04:54:19.504Z,5.64
2022-11-23T04:56:49.979Z,5.52
2022-11-23T04:59:17.143Z,5.59
2022-11-23T05:01:43.816Z,5.60
2022-11-23T05:04:29.372Z,5.70
2022-11-23T05:06:57.252Z,5.86
2022-11-23T05:09:24.865Z,5.93
2022-11-23T05:12:00.571Z,5.55
2022-11-23T05:14:27.721Z,5.63
2022-11-23T05:16:54.470Z,5.69
2022-11-23T05:19:21.205Z,5.65
2022-11-23T05:21:48.655Z,5.57
2022-11-23T05:24:15.807Z,5.46
2022-11-23T05:26:50.876Z,5.28
2022-11-23T05:29:21.555Z,5.22
2022-11-23T05:31:48.615Z,5.23
2022-11-23T05:34:15.661Z,5.28
2022-11-23T05:36:45.575Z,5.35
2022-11-23T05:39:12.719Z,5.46
2022-11-23T05:41:39.415Z,5.42
2022-11-23T05:44:14.411Z,5.33
2022-11-23T05:46:40.964Z,5.36
2022-11-23T05:49:09.432Z,5.34
2022-11-23T05:51:37.137Z,5.35
2022-11-23T05:54:03.808Z,5.49
2022-11-23T05:56:40.425Z,5.62
2022-11-23T05:59:14.700Z,5.54
2022-11-23T06:01:43.587Z,5.56
2022-11-23T06:04:12.853Z,5.47
2022-11-23T06:06:42.857Z,5.26
2022-11-23T06:09:10.663Z,5.18
2022-11-23T06:11:38.735Z,5.30
2022-11-23T06:14:14.004Z,5.35
2022-11-23T06:16:41.312Z,5.46
2022-11-23T06:19:25.679Z,5.38
2022-11-23T06:21:52.316Z,5.32
2022-11-23T06:24:19.770Z,5.45
2022-11-23T06:26:51.938Z,5.55
2022-11-23T06:29:19.892Z,5.53
2022-11-23T06:31:46.642Z,5.61
2022-11-23T06:34:13.691Z,5.62
2022-11-23T06:36:40.837Z,5.62
2022-11-23T06:39:09.495Z,5.62
2022-11-23T06:41:36.092Z,5.68
2022-11-23T06:44:03.205Z,5.81
2022-11-23T06:46:36.984Z,5.97
2022-11-23T06:49:03.953Z,6.06
2022-11-23T06:51:30.592Z,6.06
2022-11-23T06:53:57.740Z,6.06
2022-11-23T06:56:24.579Z,5.82
2022-11-23T06:58:51.127Z,5.68
2022-11-23T07:01:21.035Z,5.88
2022-11-23T07:03:53.577Z,6.02
2022-11-23T07:06:25.464Z,6.06
2022-11-23T07:08:55.175Z,6.10
2022-11-23T07:11:28.364Z,6.11
2022-11-23T07:13:55.064Z,6.18
2022-11-23T07:16:23.942Z,6.14
2022-11-23T07:18:50.942Z,5.96
2022-11-23T07:21:17.572Z,5.83
2022-11-23T07:23:44.030Z,5.78
2022-11-23T07:26:10.748Z,5.78
2022-11-23T07:28:38.716Z,5.50
2022-11-23T07:31:05.884Z,5.26
2022-11-23T07:33:32.666Z,5.33
2022-11-23T07:36:02.622Z,5.44
2022-11-23T07:38:30.485Z,5.50
2022-11-23T07:41:00.155Z,5.67
2022-11-23T07:44:05.532Z,5.79
2022-11-23T07:46:31.983Z,5.76
2022-11-23T07:49:01.584Z,5.78
2022-11-23T07:51:29.094Z,5.94
2022-11-23T07:53:55.767Z,5.93
2022-11-23T07:56:22.507Z,5.73
2022-11-23T07:58:49.042Z,5.58
2022-11-23T08:01:17.929Z,5.61
2022-11-23T08:03:47.646Z,5.60
2022-11-23T08:06:14.481Z,5.52
2022-11-23T08:08:41.859Z,5.59
2022-11-23T08:11:08.748Z,5.67
2022-11-23T08:13:36.642Z,5.69
2022-11-23T08:16:03.177Z,5.83
2022-11-23T08:18:29.765Z,6.12
2022-11-23T08:20:59.933Z,6.01
2022-11-23T08:23:26.455Z,5.94
2022-11-23T08:25:52.991Z,5.92
2022-11-23T08:28:19.914Z,6.00
2022-11-23T08:30:46.594Z,5.99
2022-11-23T08:33:13.423Z,5.99
2022-11-23T08:35:41.479Z,5.86
2022-11-23T08:38:09.277Z,5.99
2022-11-23T08:40:36.420Z,6.02
2022-11-23T08:43:03.759Z,6.15
2022-11-23T08:45:30.431Z,6.23
2022-11-23T08:48:01.538Z,6.11
2022-11-23T08:50:31.657Z,6.15
2022-11-23T08:52:58.880Z,6.18
2022-11-23T08:55:26.367Z,5.77
2022-11-23T08:57:59.452Z,5.74
2022-11-23T09:00:26.598Z,5.55
2022-11-23T09:02:53.530Z,5.55
2022-11-23T09:05:20.588Z,5.56
2022-11-23T09:07:47.171Z,5.70
2022-11-23T09:10:18.370Z,5.69
2022-11-23T09:12:47.212Z,5.94
2022-11-23T09:15:14.295Z,5.99
2022-11-23T09:17:41.150Z,5.99
2022-11-23T09:20:09.438Z,6.01
2022-11-23T09:22:36.057Z,5.99
2022-11-23T09:25:03.278Z,5.87
2022-11-23T09:27:30.050Z,5.91
2022-11-23T09:29:56.603Z,5.99
2022-11-23T09:32:23.016Z,6.13
2022-11-23T09:34:49.602Z,6.25
2022-11-23T09:37:16.086Z,6.40
2022-11-23T09:39:43.027Z,6.57
2022-11-23T09:42:20.620Z,6.64
2022-11-23T09:45:12.310Z,5.79
2022-11-23T09:48:04.479Z,4.90
2022-11-23T09:51:09.315Z,5.41
2022-11-23T09:53:44.001Z,5.60
2022-11-23T09:56:29.418Z,5.79
2022-11-23T09:58:58.914Z,5.98
2022-11-23T10:01:27.070Z,6.03
2022-11-23T10:03:53.565Z,6.07
2022-11-23T10:06:21.095Z,5.85
2022-11-23T10:08:54.992Z,5.86
2022-11-23T10:11:44.460Z,5.78
2022-11-23T10:14:32.932Z,5.75
2022-11-23T10:17:30.430Z,5.68
2022-11-23T10:20:35.615Z,5.71
2022-11-23T10:23:06.730Z,5.70
2022-11-23T10:25:48.543Z,5.57
2022-11-23T10:28:17.763Z,5.61
2022-11-23T10:31:09.717Z,5.56
2022-11-23T10:33:47.571Z,5.89
2022-11-23T10:36:15.740Z,5.76
2022-11-23T10:38:42.275Z,5.91
2022-11-23T10:41:10.903Z,5.99
2022-11-23T10:43:55.191Z,6.00
2022-11-23T10:46:34.363Z,6.08
2022-11-23T10:49:30.427Z,6.08
2022-11-23T10:52:05.015Z,6.26
2022-11-23T10:54:54.796Z,6.29
2022-11-23T11:01:01.289Z,6.20
2022-11-23T11:03:32.506Z,6.07
2022-11-23T11:06:09.525Z,6.03
2022-11-23T11:09:02.610Z,6.19
2022-11-23T11:11:35.230Z,6.32
2022-11-23T11:14:43.240Z,6.32
2022-11-23T11:17:24.981Z,6.35
2022-11-23T11:19:52.091Z,6.38
2022-11-23T11:22:29.554Z,6.17
2022-11-23T11:24:56.292Z,6.14
2022-11-23T11:27:23.544Z,6.11
2022-11-23T11:29:51.513Z,6.23
2022-11-23T11:32:33.916Z,6.30
2022-11-23T11:35:21.064Z,6.43
2022-11-23T11:37:49.767Z,6.50
2022-11-23T11:40:27.008Z,6.36
2022-11-23T11:43:01.967Z,6.35
2022-11-23T11:45:33.696Z,6.06
2022-11-23T11:48:21.732Z,6.15
2022-11-23T11:51:05.729Z,6.09
2022-11-23T11:53:59.430Z,6.16
2022-11-23T11:56:41.443Z,6.24
2022-11-23T11:59:33.251Z,6.23
2022-11-23T12:02:29.183Z,6.18
2022-11-23T12:05:13.852Z,6.36
2022-11-23T12:08:18.015Z,6.33
2022-11-23T12:10:52.872Z,6.42
2022-11-23T12:13:23.142Z,6.34
2022-11-23T12:16:27.437Z,6.48
2022-11-23T12:19:20.289Z,6.50
2022-11-23T12:22:31.026Z,6.55
2022-11-23T12:25:33.885Z,6.43
2022-11-23T12:28:32.480Z,6.37
2022-11-23T12:31:48.565Z,6.14
2022-11-23T12:34:48.882Z,6.15
2022-11-23T12:37:28.491Z,6.06
2022-11-23T12:40:21.101Z,5.88
2022-11-23T12:42:49.862Z,6.02
2022-11-23T12:45:31.821Z,6.12
2022-11-23T12:48:28.610Z,6.24
2022-11-23T12:51:09.264Z,6.37
2022-11-23T12:53:46.970Z,6.42
2022-11-23T12:56:26.259Z,6.46
2022-11-23T12:58:53.039Z,6.50
2022-11-23T13:01:41.280Z,6.43
2022-11-23T13:04:34.147Z,5.61
2022-11-23T13:07:28.901Z,5.73
2022-11-23T13:10:19.284Z,5.93
2022-11-23T13:13:12.467Z,5.76
2022-11-23T13:16:03.573Z,5.65
2022-11-23T13:18:46.027Z,5.69
2022-11-23T13:21:41.676Z,5.74
2022-11-23T13:24:34.006Z,5.67
2022-11-23T13:27:13.048Z,5.67
2022-11-23T13:29:48.869Z,5.67
2022-11-23T13:32:42.567Z,5.51
2022-11-23T13:35:18.347Z,5.38
2022-11-23T13:37:57.341Z,5.41
2022-11-23T13:40:31.560Z,5.36
2022-11-23T13:43:14.475Z,5.33
2022-11-23T13:45:41.163Z,5.35
2022-11-23T13:48:19.339Z,5.44
2022-11-23T13:50:50.895Z,5.62
2022-11-23T13:53:33.690Z,5.69
2022-11-23T13:56:37.005Z,5.40
2022-11-23T13:59:21.952Z,5.42
2022-11-23T14:02:07.045Z,5.41
2022-11-23T14:04:36.509Z,5.42
2022-11-23T14:07:06.375Z,5.30
2022-11-23T14:09:51.219Z,5.38
2022-11-23T14:12:52.239Z,5.33
2022-11-23T14:15:28.339Z,5.24
2022-11-23T14:18:20.154Z,5.12
2022-11-23T14:21:11.029Z,5.34
2022-11-23T14:24:05.641Z,5.54
2022-11-23T14:26:48.795Z,5.70
2022-11-23T14:29:55.624Z,5.69
2022-11-23T14:33:42.384Z,5.51
2022-11-23T14:36:19.897Z,5.33
2022-11-23T14:39:11.657Z,5.52
2022-11-23T14:41:40.682Z,5.54
2022-11-23T14:44:10.372Z,5.19
2022-11-23T14:46:36.995Z,5.13
2022-11-23T14:49:06.788Z,5.24
2022-11-23T14:51:34.162Z,5.32
2022-11-23T14:54:02.347Z,5.35
2022-11-23T14:56:40.473Z,5.29
2022-11-23T14:59:09.676Z,5.40
2022-11-23T15:01:36.181Z,5.52
2022-11-23T15:04:20.980Z,5.64
2022-11-23T15:06:47.569Z,5.65
2022-11-23T15:09:41.266Z,5.55
2022-11-23T15:12:24.973Z,5.40
2022-11-23T15:14:53.928Z,5.50
2022-11-23T15:17:21.562Z,5.65
2022-11-23T15:19:59.321Z,5.67
2022-11-23T15:22:27.246Z,5.52
2022-11-23T15:24:54.084Z,5.56
2022-11-23T15:27:27.884Z,5.55
2022-11-23T15:29:59.079Z,5.59
2022-11-23T15:32:33.139Z,5.48
2022-11-23T15:35:06.381Z,5.44
2022-11-23T15:37:32.921Z,5.45
2022-11-23T15:39:59.659Z,5.51
2022-11-23T15:42:26.600Z,5.51
2022-11-23T15:44:55.733Z,5.56
2022-11-23T15:47:26.726Z,5.70
2022-11-23T15:50:02.725Z,5.72
2022-11-23T15:52:33.881Z,5.81
2022-11-23T15:55:09.351Z,5.81
2022-11-23T15:57:36.962Z,5.75
2022-11-23T16:00:04.989Z,5.75
2022-11-23T16:02:38.134Z,5.65
2022-11-23T16:05:14.454Z,5.65
2022-11-23T16:07:58.535Z,5.49
2022-11-23T16:10:30.384Z,5.51
2022-11-23T16:12:58.430Z,5.53
2022-11-23T16:15:37.993Z,5.57
2022-11-23T16:18:18.436Z,5.51
2022-11-23T16:20:47.936Z,5.61
2022-11-23T16:23:19.436Z,5.62
2022-11-23T16:25:52.983Z,5.63
2022-11-23T16:28:27.299Z,5.51
2022-11-23T16:30:53.982Z,5.63
2022-11-23T16:33:20.881Z,5.65
2022-11-23T16:35:47.843Z,5.74
2022-11-23T16:38:14.502Z,5.71
2022-11-23T16:40:42.018Z,5.69
2022-11-23T16:43:09.995Z,5.68
2022-11-23T16:45:38.730Z,5.75
2022-11-23T16:48:24.890Z,5.78
2022-11-23T16:50:55.710Z,5.85
2022-11-23T16:53:22.440Z,5.79
2022-11-23T16:55:52.763Z,5.80
2022-11-23T16:58:19.534Z,5.77
2022-11-23T17:00:48.328Z,5.73
2022-11-23T17:03:16.172Z,5.72
2022-11-23T17:05:44.457Z,5.70
2022-11-23T17:08:11.681Z,5.66
2022-11-23T17:10:39.140Z,5.73
2022-11-23T17:13:10.692Z,5.74
2022-11-23T17:15:37.525Z,5.66
2022-11-23T17:18:04.145Z,5.76
2022-11-23T17:20:30.694Z,5.77
2022-11-23T17:23:00.541Z,5.66
2022-11-23T17:25:27.047Z,5.67
2022-11-23T17:27:53.687Z,5.67
2022-11-23T17:30:21.448Z,5.57
2022-11-23T17:32:49.004Z,5.51
2022-11-23T17:35:16.359Z,5.56
2022-11-23T17:37:42.957Z,5.67
2022-11-23T17:40:17.707Z,5.66
2022-11-23T17:42:45.499Z,5.68
2022-11-23T17:45:12.337Z,5.67
2022-11-23T17:47:39.074Z,5.78
2022-11-23T17:50:06.951Z,5.82
2022-11-23T17:52:33.508Z,5.72
2022-11-23T17:55:00.117Z,5.80
2022-11-23T17:57:26.918Z,5.82
2022-11-23T17:59:53.785Z,5.65
2022-11-23T18:02:20.525Z,5.70
2022-11-23T18:04:47.197Z,5.50
2022-11-23T18:07:14.728Z,5.38
2022-11-23T18:09:42.027Z,5.46
2022-11-23T18:12:08.935Z,5.53
2022-11-23T18:14:35.716Z,5.55
2022-11-23T18:17:02.290Z,5.52
2022-11-23T18:19:28.982Z,5.59
2022-11-23T18:21:55.564Z,5.67
2022-11-23T18:24:22.201Z,5.59
2022-11-23T18:26:48.782Z,5.44
2022-11-23T18:29:17.328Z,5.57
2022-11-23T18:31:44.378Z,5.52
2022-11-23T18:34:11.001Z,5.39
2022-11-23T18:36:37.641Z,5.41
2022-11-23T18:39:04.359Z,5.45
2022-11-23T18:41:30.910Z,5.26
2022-11-23T18:43:57.447Z,5.30
2022-11-23T18:46:24.091Z,5.19
2022-11-23T18:48:50.925Z,5.38
2022-11-23T18:51:17.869Z,5.51
2022-11-23T18:53:46.843Z,5.65
2022-11-23T18:56:13.511Z,5.67
2022-11-23T18:58:41.990Z,5.78
2022-11-23T19:01:12.319Z,5.72
2022-11-23T19:03:40.812Z,5.68
2022-11-23T19:06:08.072Z,5.73
2022-11-23T19:08:42.553Z,5.78
2022-11-23T19:11:18.667Z,5.88
2022-11-23T19:13:49.447Z,5.85
2022-11-23T19:16:25.219Z,5.84
2022-11-23T19:18:57.360Z,5.78
2022-11-23T19:21:26.346Z,5.74
2022-11-23T19:23:54.218Z,5.78
2022-11-23T19:26:20.971Z,5.76
2022-11-23T19:28:47.695Z,5.81
2022-11-23T19:31:19.584Z,5.46
2022-11-23T19:33:47.525Z,5.59
2022-11-23T19:36:17.023Z,5.62
2022-11-23T19:38:43.971Z,5.72
2022-11-23T19:41:10.611Z,5.76
2022-11-23T19:43:37.283Z,5.86
2022-11-23T19:46:05.763Z,5.85
2022-11-23T19:48:33.178Z,5.91
2022-11-23T19:51:02.582Z,5.82
2022-11-23T19:53:31.074Z,5.93
2022-11-23T19:56:18.708Z,6.05
2022-11-23T19:58:45.531Z,5.98
2022-11-23T20:01:14.365Z,5.97
2022-11-23T20:03:44.355Z,5.86
2022-11-23T20:06:18.730Z,5.73
2022-11-23T20:08:45.596Z,5.84
2022-11-23T20:11:15.001Z,5.81
2022-11-23T20:13:42.353Z,5.53
2022-11-23T20:16:12.575Z,5.69
2022-11-23T20:18:40.537Z,5.64
2022-11-23T20:21:14.191Z,5.69
2022-11-23T20:23:41.494Z,5.73
2022-11-23T20:26:08.981Z,5.61
2022-11-23T20:28:35.570Z,5.73
2022-11-23T20:31:06.390Z,5.71
2022-11-23T20:33:33.278Z,5.75
2022-11-23T20:36:10.549Z,5.85
2022-11-23T20:38:38.210Z,5.94
2022-11-23T20:41:28.293Z,6.06
2022-11-23T20:44:00.053Z,5.91
2022-11-23T20:49:16.045Z,6.01
2022-11-23T20:51:42.640Z,6.04
2022-11-23T20:54:09.433Z,6.06
2022-11-23T20:56:38.665Z,6.13
2022-11-23T20:59:05.133Z,6.06
2022-11-23T21:01:32.050Z,5.76
2022-11-23T21:03:59.156Z,5.84
2022-11-23T21:06:26.199Z,5.80
2022-11-23T21:08:52.773Z,5.79
2022-11-23T21:11:43.571Z,5.85
2022-11-23T21:14:18.284Z,5.79
2022-11-23T21:16:52.449Z,5.83
2022-11-23T21:19:21.063Z,5.89
2022-11-23T21:21:48.312Z,5.66
2022-11-23T21:24:15.052Z,5.44
2022-11-23T21:26:41.582Z,5.53
2022-11-23T21:29:10.474Z,5.60
2022-11-23T21:31:42.332Z,5.69
2022-11-23T21:34:17.025Z,5.75
2022-11-23T21:36:43.435Z,5.80
2022-11-23T21:39:10.674Z,5.94
2022-11-23T21:41:37.687Z,5.94
2022-11-23T21:44:05.244Z,5.24
2022-11-23T21:46:32.140Z,4.22
2022-11-23T21:48:59.078Z,3.40
2022-11-23T21:51:29.151Z,3.49
2022-11-23T21:53:58.234Z,4.19
2022-11-23T21:56:25.010Z,4.67
2022-11-23T21:58:52.028Z,5.00
2022-11-23T22:01:21.096Z,5.17
2022-11-23T22:03:59.332Z,5.26
2022-11-23T22:06:25.866Z,5.24
2022-11-23T22:08:54.261Z,5.27
2022-11-23T22:11:26.207Z,5.41
2022-11-23T22:13:55.751Z,5.57
2022-11-23T22:16:24.732Z,5.72
2022-11-23T22:18:55.551Z,5.68
2022-11-23T22:21:24.946Z,5.71
2022-11-23T22:23:51.786Z,5.81
2022-11-23T22:26:19.357Z,5.84
2022-11-23T22:28:48.810Z,5.90
2022-11-23T22:31:21.049Z,6.07
2022-11-23T22:33:48.464Z,5.50
2022-11-23T22:36:17.807Z,4.46
2022-11-23T22:38:44.709Z,3.60
2022-11-23T22:41:13.392Z,3.56
2022-11-23T22:43:40.036Z,4.70
2022-11-23T22:46:14.904Z,5.15
2022-11-23T22:48:43.160Z,5.17
2022-11-23T22:51:12.494Z,5.16
2022-11-23T22:53:44.255Z,5.13
2022-11-23T22:56:14.342Z,5.27
2022-11-23T22:58:41.119Z,5.38
2022-11-23T23:01:19.658Z,5.50
2022-11-23T23:03:47.012Z,5.46
2022-11-23T23:06:19.181Z,5.46
2022-11-23T23:08:46.330Z,5.57
2022-11-23T23:11:13.785Z,5.69
2022-11-23T23:13:41.347Z,5.64
2022-11-23T23:16:11.174Z,5.62
2022-11-23T23:18:38.406Z,5.57
2022-11-23T23:21:10.625Z,5.54
2022-11-23T23:23:38.344Z,5.31
2022-11-23T23:26:05.385Z,5.28
2022-11-23T23:28:32.122Z,5.42
2022-11-23T23:31:10.333Z,5.54
2022-11-23T23:33:37.173Z,5.69
2022-11-23T23:36:09.582Z,5.78
2022-11-23T23:38:36.794Z,5.83
2022-11-23T23:41:04.768Z,5.91
2022-11-23T23:43:31.605Z,5.87
2022-11-23T23:45:59.482Z,5.63
2022-11-23T23:48:36.654Z,5.58
2022-11-23T23:51:08.307Z,5.44
2022-11-23T23:53:35.764Z,4.46
2022-11-23T23:56:05.156Z,3.65
2022-11-23T23:58:31.802Z,4.56
